sensor_id;sensor_type;location;lat;lon;timestamp;P1;durP1;ratioP1;P2;durP2;ratioP2
1747;SDS011;871;47.034;15.394;2024-02-28T00:00:05;38.77;;;1.30;;
1747;SDS011;871;47.034;15.394;2024-02-28T00:02:31;39.13;;;1.20;;
1747;SDS011;871;47.034;15.394;2024-02-28T00:04:57;39.23;;;1.23;;
1747;SDS011;871;47.034;15.394;2024-02-28T00:07:24;39.30;;;1.50;;
1747;SDS011;871;47.034;15.394;2024-02-28T00:09:50;38.67;;;1.30;;
1747;SDS011;871;47.034;15.394;2024-02-28T00:12:16;38.70;;;1.20;;
1747;SDS011;871;47.034;15.394;2024-02-28T00:14:43;38.67;;;1.73;;
1747;SDS011;871;47.034;15.394;2024-02-28T00:17:09;38.67;;;1.30;;
1747;SDS011;871;47.034;15.394;2024-02-28T00:19:35;38.43;;;1.20;;
1747;SDS011;871;47.034;15.394;2024-02-28T00:22:01;38.90;;;1.20;;
1747;SDS011;871;47.034;15.394;2024-02-28T00:24:28;38.63;;;1.57;;
1747;SDS011;871;47.034;15.394;2024-02-28T00:26:54;38.63;;;1.40;;
1747;SDS011;871;47.034;15.394;2024-02-28T00:29:20;38.50;;;1.27;;
1747;SDS011;871;47.034;15.394;2024-02-28T00:31:46;38.97;;;1.30;;
1747;SDS011;871;47.034;15.394;2024-02-28T00:34:12;39.40;;;1.87;;
1747;SDS011;871;47.034;15.394;2024-02-28T00:36:38;38.97;;;1.60;;
1747;SDS011;871;47.034;15.394;2024-02-28T00:39:04;38.83;;;1.63;;
1747;SDS011;871;47.034;15.394;2024-02-28T00:41:31;38.87;;;1.40;;
1747;SDS011;871;47.034;15.394;2024-02-28T00:43:57;39.07;;;1.17;;
1747;SDS011;871;47.034;15.394;2024-02-28T00:46:24;38.87;;;1.43;;
1747;SDS011;871;47.034;15.394;2024-02-28T00:48:50;39.10;;;1.97;;
1747;SDS011;871;47.034;15.394;2024-02-28T00:51:16;40.23;;;1.80;;
1747;SDS011;871;47.034;15.394;2024-02-28T00:53:42;38.43;;;1.20;;
1747;SDS011;871;47.034;15.394;2024-02-28T00:56:08;39.10;;;2.13;;
1747;SDS011;871;47.034;15.394;2024-02-28T00:58:34;38.47;;;1.10;;
1747;SDS011;871;47.034;15.394;2024-02-28T01:01:01;38.37;;;1.30;;
1747;SDS011;871;47.034;15.394;2024-02-28T01:03:27;39.07;;;1.57;;
1747;SDS011;871;47.034;15.394;2024-02-28T01:05:53;38.73;;;1.20;;
1747;SDS011;871;47.034;15.394;2024-02-28T01:08:19;38.67;;;1.17;;
1747;SDS011;871;47.034;15.394;2024-02-28T01:10:46;39.37;;;1.60;;
1747;SDS011;871;47.034;15.394;2024-02-28T01:13:12;39.27;;;1.20;;
1747;SDS011;871;47.034;15.394;2024-02-28T01:15:41;39.60;;;1.53;;
1747;SDS011;871;47.034;15.394;2024-02-28T01:18:08;39.37;;;1.20;;
1747;SDS011;871;47.034;15.394;2024-02-28T01:20:35;39.47;;;1.10;;
1747;SDS011;871;47.034;15.394;2024-02-28T01:23:01;41.30;;;1.83;;
1747;SDS011;871;47.034;15.394;2024-02-28T01:25:27;39.97;;;1.10;;
1747;SDS011;871;47.034;15.394;2024-02-28T01:27:53;39.87;;;1.47;;
1747;SDS011;871;47.034;15.394;2024-02-28T01:30:20;40.60;;;1.40;;
1747;SDS011;871;47.034;15.394;2024-02-28T01:32:46;39.57;;;1.40;;
1747;SDS011;871;47.034;15.394;2024-02-28T01:35:13;39.50;;;1.50;;
1747;SDS011;871;47.034;15.394;2024-02-28T01:37:39;39.73;;;1.40;;
1747;SDS011;871;47.034;15.394;2024-02-28T01:40:05;39.43;;;1.30;;
1747;SDS011;871;47.034;15.394;2024-02-28T01:42:32;39.27;;;1.20;;
1747;SDS011;871;47.034;15.394;2024-02-28T01:44:58;39.40;;;1.60;;
1747;SDS011;871;47.034;15.394;2024-02-28T01:47:24;38.73;;;1.20;;
1747;SDS011;871;47.034;15.394;2024-02-28T01:49:50;38.77;;;1.30;;
1747;SDS011;871;47.034;15.394;2024-02-28T01:52:18;39.70;;;2.43;;
1747;SDS011;871;47.034;15.394;2024-02-28T01:54:44;39.13;;;1.13;;
1747;SDS011;871;47.034;15.394;2024-02-28T01:57:10;38.87;;;1.40;;
1747;SDS011;871;47.034;15.394;2024-02-28T01:59:36;39.30;;;1.50;;
1747;SDS011;871;47.034;15.394;2024-02-28T02:02:03;38.57;;;1.37;;
1747;SDS011;871;47.034;15.394;2024-02-28T02:04:29;38.33;;;1.40;;
1747;SDS011;871;47.034;15.394;2024-02-28T02:06:55;38.55;;;1.42;;
1747;SDS011;871;47.034;15.394;2024-02-28T02:09:23;39.17;;;1.50;;
1747;SDS011;871;47.034;15.394;2024-02-28T02:11:49;38.27;;;1.50;;
1747;SDS011;871;47.034;15.394;2024-02-28T02:14:15;38.40;;;1.30;;
1747;SDS011;871;47.034;15.394;2024-02-28T02:16:41;38.57;;;1.63;;
1747;SDS011;871;47.034;15.394;2024-02-28T02:19:10;38.43;;;1.20;;
1747;SDS011;871;47.034;15.394;2024-02-28T02:21:40;38.78;;;1.40;;
1747;SDS011;871;47.034;15.394;2024-02-28T02:24:07;38.73;;;1.30;;
1747;SDS011;871;47.034;15.394;2024-02-28T02:26:33;38.40;;;1.30;;
1747;SDS011;871;47.034;15.394;2024-02-28T02:28:59;40.20;;;2.53;;
1747;SDS011;871;47.034;15.394;2024-02-28T02:31:25;38.00;;;1.57;;
1747;SDS011;871;47.034;15.394;2024-02-28T02:33:51;38.60;;;1.38;;
1747;SDS011;871;47.034;15.394;2024-02-28T02:36:17;38.97;;;1.50;;
1747;SDS011;871;47.034;15.394;2024-02-28T02:38:43;38.47;;;1.20;;
1747;SDS011;871;47.034;15.394;2024-02-28T02:41:09;38.50;;;1.30;;
1747;SDS011;871;47.034;15.394;2024-02-28T02:43:35;38.37;;;1.40;;
1747;SDS011;871;47.034;15.394;2024-02-28T02:46:02;38.00;;;1.30;;
1747;SDS011;871;47.034;15.394;2024-02-28T02:48:29;38.50;;;1.30;;
1747;SDS011;871;47.034;15.394;2024-02-28T02:50:55;38.50;;;1.25;;
1747;SDS011;871;47.034;15.394;2024-02-28T02:53:21;39.17;;;1.60;;
1747;SDS011;871;47.034;15.394;2024-02-28T02:55:47;38.93;;;1.50;;
1747;SDS011;871;47.034;15.394;2024-02-28T02:58:13;39.03;;;1.30;;
1747;SDS011;871;47.034;15.394;2024-02-28T03:00:39;38.92;;;1.50;;
1747;SDS011;871;47.034;15.394;2024-02-28T03:03:05;38.72;;;1.48;;
1747;SDS011;871;47.034;15.394;2024-02-28T03:05:31;38.75;;;1.30;;
1747;SDS011;871;47.034;15.394;2024-02-28T03:07:57;39.40;;;2.42;;
1747;SDS011;871;47.034;15.394;2024-02-28T03:10:23;38.55;;;1.92;;
1747;SDS011;871;47.034;15.394;2024-02-28T03:12:49;37.90;;;1.50;;
1747;SDS011;871;47.034;15.394;2024-02-28T03:15:15;38.05;;;1.50;;
1747;SDS011;871;47.034;15.394;2024-02-28T03:17:41;37.78;;;1.42;;
1747;SDS011;871;47.034;15.394;2024-02-28T03:20:08;38.33;;;1.70;;
1747;SDS011;871;47.034;15.394;2024-02-28T03:22:34;38.40;;;1.50;;
1747;SDS011;871;47.034;15.394;2024-02-28T03:25:00;38.58;;;1.75;;
1747;SDS011;871;47.034;15.394;2024-02-28T03:27:28;38.33;;;1.60;;
1747;SDS011;871;47.034;15.394;2024-02-28T03:29:54;38.33;;;2.00;;
1747;SDS011;871;47.034;15.394;2024-02-28T03:32:20;38.50;;;1.40;;
1747;SDS011;871;47.034;15.394;2024-02-28T03:34:47;38.77;;;1.40;;
1747;SDS011;871;47.034;15.394;2024-02-28T03:37:13;38.83;;;1.40;;
1747;SDS011;871;47.034;15.394;2024-02-28T03:39:40;38.92;;;1.40;;
1747;SDS011;871;47.034;15.394;2024-02-28T03:42:06;39.15;;;1.80;;
1747;SDS011;871;47.034;15.394;2024-02-28T03:44:32;38.40;;;1.50;;
1747;SDS011;871;47.034;15.394;2024-02-28T03:46:58;38.67;;;1.30;;
1747;SDS011;871;47.034;15.394;2024-02-28T03:49:24;38.90;;;1.45;;
1747;SDS011;871;47.034;15.394;2024-02-28T03:51:50;38.67;;;1.40;;
1747;SDS011;871;47.034;15.394;2024-02-28T03:54:16;38.85;;;1.60;;
1747;SDS011;871;47.034;15.394;2024-02-28T03:56:42;39.72;;;2.60;;
1747;SDS011;871;47.034;15.394;2024-02-28T03:59:08;38.80;;;1.40;;
1747;SDS011;871;47.034;15.394;2024-02-28T04:01:34;38.58;;;1.40;;
1747;SDS011;871;47.034;15.394;2024-02-28T04:04:01;38.60;;;1.30;;
1747;SDS011;871;47.034;15.394;2024-02-28T04:06:27;38.25;;;1.40;;
1747;SDS011;871;47.034;15.394;2024-02-28T04:08:53;38.92;;;1.58;;
1747;SDS011;871;47.034;15.394;2024-02-28T04:11:19;39.20;;;1.65;;
1747;SDS011;871;47.034;15.394;2024-02-28T04:13:45;39.15;;;1.75;;
1747;SDS011;871;47.034;15.394;2024-02-28T04:16:12;39.13;;;1.42;;
1747;SDS011;871;47.034;15.394;2024-02-28T04:18:38;39.08;;;1.85;;
1747;SDS011;871;47.034;15.394;2024-02-28T04:21:04;38.80;;;1.40;;
1747;SDS011;871;47.034;15.394;2024-02-28T04:23:30;39.50;;;1.30;;
1747;SDS011;871;47.034;15.394;2024-02-28T04:25:56;39.38;;;1.70;;
1747;SDS011;871;47.034;15.394;2024-02-28T04:28:22;38.92;;;1.48;;
1747;SDS011;871;47.034;15.394;2024-02-28T04:30:48;38.92;;;1.40;;
1747;SDS011;871;47.034;15.394;2024-02-28T04:33:14;38.75;;;1.50;;
1747;SDS011;871;47.034;15.394;2024-02-28T04:35:40;40.80;;;2.13;;
1747;SDS011;871;47.034;15.394;2024-02-28T04:38:06;38.53;;;1.40;;
1747;SDS011;871;47.034;15.394;2024-02-28T04:40:32;38.43;;;1.43;;
1747;SDS011;871;47.034;15.394;2024-02-28T04:42:58;39.10;;;2.15;;
1747;SDS011;871;47.034;15.394;2024-02-28T04:45:24;39.33;;;1.50;;
1747;SDS011;871;47.034;15.394;2024-02-28T04:47:51;38.60;;;1.98;;
1747;SDS011;871;47.034;15.394;2024-02-28T04:50:19;38.45;;;1.80;;
1747;SDS011;871;47.034;15.394;2024-02-28T04:52:45;37.70;;;1.50;;
1747;SDS011;871;47.034;15.394;2024-02-28T04:55:11;37.80;;;1.70;;
1747;SDS011;871;47.034;15.394;2024-02-28T04:57:37;37.72;;;1.50;;
1747;SDS011;871;47.034;15.394;2024-02-28T05:00:03;37.45;;;1.52;;
1747;SDS011;871;47.034;15.394;2024-02-28T05:02:30;37.33;;;1.88;;
1747;SDS011;871;47.034;15.394;2024-02-28T05:04:56;37.07;;;1.50;;
1747;SDS011;871;47.034;15.394;2024-02-28T05:07:23;37.92;;;1.98;;
1747;SDS011;871;47.034;15.394;2024-02-28T05:09:49;37.30;;;1.50;;
1747;SDS011;871;47.034;15.394;2024-02-28T05:12:15;37.80;;;1.70;;
1747;SDS011;871;47.034;15.394;2024-02-28T05:14:41;37.70;;;1.55;;
1747;SDS011;871;47.034;15.394;2024-02-28T05:17:07;37.92;;;1.60;;
1747;SDS011;871;47.034;15.394;2024-02-28T05:19:33;38.13;;;2.10;;
1747;SDS011;871;47.034;15.394;2024-02-28T05:21:59;37.75;;;1.70;;
1747;SDS011;871;47.034;15.394;2024-02-28T05:24:26;38.03;;;1.50;;
1747;SDS011;871;47.034;15.394;2024-02-28T05:26:52;37.47;;;1.60;;
1747;SDS011;871;47.034;15.394;2024-02-28T05:29:18;37.67;;;1.50;;
1747;SDS011;871;47.034;15.394;2024-02-28T05:31:44;37.97;;;1.57;;
1747;SDS011;871;47.034;15.394;2024-02-28T05:34:10;37.80;;;1.50;;
1747;SDS011;871;47.034;15.394;2024-02-28T05:36:37;38.33;;;2.15;;
1747;SDS011;871;47.034;15.394;2024-02-28T05:39:03;39.08;;;2.63;;
1747;SDS011;871;47.034;15.394;2024-02-28T05:41:30;37.72;;;1.75;;
1747;SDS011;871;47.034;15.394;2024-02-28T05:43:56;38.22;;;1.67;;
1747;SDS011;871;47.034;15.394;2024-02-28T05:46:23;38.50;;;2.17;;
1747;SDS011;871;47.034;15.394;2024-02-28T05:48:49;38.45;;;2.13;;
1747;SDS011;871;47.034;15.394;2024-02-28T05:51:15;37.70;;;1.90;;
1747;SDS011;871;47.034;15.394;2024-02-28T05:53:41;37.95;;;2.05;;
1747;SDS011;871;47.034;15.394;2024-02-28T05:56:08;39.97;;;2.17;;
1747;SDS011;871;47.034;15.394;2024-02-28T05:58:44;37.80;;;1.50;;
1747;SDS011;871;47.034;15.394;2024-02-28T06:01:11;37.85;;;1.60;;
1747;SDS011;871;47.034;15.394;2024-02-28T06:03:37;37.40;;;1.70;;
1747;SDS011;871;47.034;15.394;2024-02-28T06:06:04;37.20;;;1.65;;
1747;SDS011;871;47.034;15.394;2024-02-28T06:08:33;36.88;;;1.75;;
1747;SDS011;871;47.034;15.394;2024-02-28T06:11:00;36.70;;;1.90;;
1747;SDS011;871;47.034;15.394;2024-02-28T06:13:27;36.80;;;1.90;;
1747;SDS011;871;47.034;15.394;2024-02-28T06:15:56;35.75;;;1.70;;
1747;SDS011;871;47.034;15.394;2024-02-28T06:18:23;35.92;;;1.60;;
1747;SDS011;871;47.034;15.394;2024-02-28T06:20:52;35.92;;;1.65;;
1747;SDS011;871;47.034;15.394;2024-02-28T06:23:18;36.83;;;2.25;;
1747;SDS011;871;47.034;15.394;2024-02-28T06:25:44;35.60;;;1.58;;
1747;SDS011;871;47.034;15.394;2024-02-28T06:28:10;35.42;;;1.70;;
1747;SDS011;871;47.034;15.394;2024-02-28T06:30:36;35.67;;;1.63;;
1747;SDS011;871;47.034;15.394;2024-02-28T06:33:02;35.75;;;1.90;;
1747;SDS011;871;47.034;15.394;2024-02-28T06:35:29;35.65;;;1.80;;
1747;SDS011;871;47.034;15.394;2024-02-28T06:37:55;35.72;;;1.75;;
1747;SDS011;871;47.034;15.394;2024-02-28T06:40:22;35.95;;;1.90;;
1747;SDS011;871;47.034;15.394;2024-02-28T06:42:48;35.83;;;1.58;;
1747;SDS011;871;47.034;15.394;2024-02-28T06:45:14;36.15;;;1.90;;
1747;SDS011;871;47.034;15.394;2024-02-28T06:47:40;35.60;;;1.60;;
1747;SDS011;871;47.034;15.394;2024-02-28T06:50:06;35.60;;;1.57;;
1747;SDS011;871;47.034;15.394;2024-02-28T06:52:33;35.80;;;2.23;;
1747;SDS011;871;47.034;15.394;2024-02-28T06:55:00;35.63;;;1.53;;
1747;SDS011;871;47.034;15.394;2024-02-28T06:57:28;36.47;;;1.70;;
1747;SDS011;871;47.034;15.394;2024-02-28T06:59:54;36.30;;;1.60;;
1747;SDS011;871;47.034;15.394;2024-02-28T07:02:20;36.80;;;1.60;;
1747;SDS011;871;47.034;15.394;2024-02-28T07:04:46;36.63;;;1.50;;
1747;SDS011;871;47.034;15.394;2024-02-28T07:07:12;37.43;;;1.70;;
1747;SDS011;871;47.034;15.394;2024-02-28T07:09:38;37.53;;;1.60;;
1747;SDS011;871;47.034;15.394;2024-02-28T07:12:05;37.33;;;1.53;;
1747;SDS011;871;47.034;15.394;2024-02-28T07:14:31;37.33;;;1.70;;
1747;SDS011;871;47.034;15.394;2024-02-28T07:16:57;37.13;;;1.67;;
1747;SDS011;871;47.034;15.394;2024-02-28T07:19:23;37.70;;;2.07;;
1747;SDS011;871;47.034;15.394;2024-02-28T07:21:50;37.20;;;1.60;;
1747;SDS011;871;47.034;15.394;2024-02-28T07:24:16;36.77;;;1.50;;
1747;SDS011;871;47.034;15.394;2024-02-28T07:26:42;40.53;;;2.00;;
1747;SDS011;871;47.034;15.394;2024-02-28T07:29:08;37.33;;;1.40;;
1747;SDS011;871;47.034;15.394;2024-02-28T07:31:34;37.77;;;1.70;;
1747;SDS011;871;47.034;15.394;2024-02-28T07:34:00;37.27;;;1.50;;
1747;SDS011;871;47.034;15.394;2024-02-28T07:36:26;37.90;;;1.43;;
1747;SDS011;871;47.034;15.394;2024-02-28T07:38:52;38.30;;;1.80;;
1747;SDS011;871;47.034;15.394;2024-02-28T07:41:18;38.10;;;1.47;;
1747;SDS011;871;47.034;15.394;2024-02-28T07:43:44;38.70;;;1.90;;
1747;SDS011;871;47.034;15.394;2024-02-28T07:46:11;38.47;;;1.80;;
1747;SDS011;871;47.034;15.394;2024-02-28T07:48:37;38.70;;;1.60;;
1747;SDS011;871;47.034;15.394;2024-02-28T07:51:06;39.73;;;2.20;;
1747;SDS011;871;47.034;15.394;2024-02-28T07:53:32;39.10;;;1.77;;
1747;SDS011;871;47.034;15.394;2024-02-28T07:55:58;37.73;;;1.40;;
1747;SDS011;871;47.034;15.394;2024-02-28T07:58:24;37.70;;;1.40;;
1747;SDS011;871;47.034;15.394;2024-02-28T08:00:51;37.30;;;1.40;;
1747;SDS011;871;47.034;15.394;2024-02-28T08:03:20;37.63;;;1.40;;
1747;SDS011;871;47.034;15.394;2024-02-28T08:05:46;38.23;;;1.50;;
1747;SDS011;871;47.034;15.394;2024-02-28T08:08:13;38.80;;;1.40;;
1747;SDS011;871;47.034;15.394;2024-02-28T08:10:40;39.37;;;1.30;;
1747;SDS011;871;47.034;15.394;2024-02-28T08:13:06;38.97;;;1.30;;
1747;SDS011;871;47.034;15.394;2024-02-28T08:15:35;39.03;;;1.30;;
1747;SDS011;871;47.034;15.394;2024-02-28T08:18:02;38.43;;;1.30;;
1747;SDS011;871;47.034;15.394;2024-02-28T08:20:28;39.97;;;2.73;;
1747;SDS011;871;47.034;15.394;2024-02-28T08:22:54;39.37;;;1.20;;
1747;SDS011;871;47.034;15.394;2024-02-28T08:25:22;39.53;;;1.27;;
1747;SDS011;871;47.034;15.394;2024-02-28T08:27:48;39.77;;;1.30;;
1747;SDS011;871;47.034;15.394;2024-02-28T08:30:14;40.70;;;1.97;;
1747;SDS011;871;47.034;15.394;2024-02-28T08:32:41;39.30;;;1.37;;
1747;SDS011;871;47.034;15.394;2024-02-28T08:35:10;39.63;;;1.40;;
1747;SDS011;871;47.034;15.394;2024-02-28T08:37:39;39.67;;;1.47;;
1747;SDS011;871;47.034;15.394;2024-02-28T08:40:06;39.83;;;1.60;;
1747;SDS011;871;47.034;15.394;2024-02-28T08:42:33;41.23;;;3.47;;
1747;SDS011;871;47.034;15.394;2024-02-28T08:44:59;39.73;;;1.20;;
1747;SDS011;871;47.034;15.394;2024-02-28T08:47:26;40.13;;;1.10;;
1747;SDS011;871;47.034;15.394;2024-02-28T08:49:52;41.87;;;1.90;;
1747;SDS011;871;47.034;15.394;2024-02-28T08:52:20;40.47;;;1.17;;
1747;SDS011;871;47.034;15.394;2024-02-28T08:54:46;40.57;;;1.30;;
1747;SDS011;871;47.034;15.394;2024-02-28T08:57:12;40.80;;;1.27;;
1747;SDS011;871;47.034;15.394;2024-02-28T08:59:39;40.40;;;1.30;;
1747;SDS011;871;47.034;15.394;2024-02-28T09:02:05;41.70;;;3.00;;
1747;SDS011;871;47.034;15.394;2024-02-28T09:04:31;40.57;;;1.27;;
1747;SDS011;871;47.034;15.394;2024-02-28T09:06:57;41.03;;;1.63;;
1747;SDS011;871;47.034;15.394;2024-02-28T09:09:24;42.20;;;1.77;;
1747;SDS011;871;47.034;15.394;2024-02-28T09:11:50;41.20;;;1.77;;
1747;SDS011;871;47.034;15.394;2024-02-28T09:14:19;41.30;;;1.87;;
1747;SDS011;871;47.034;15.394;2024-02-28T09:16:45;40.60;;;1.40;;
1747;SDS011;871;47.034;15.394;2024-02-28T09:19:12;41.47;;;1.47;;
1747;SDS011;871;47.034;15.394;2024-02-28T09:21:39;41.37;;;1.30;;
1747;SDS011;871;47.034;15.394;2024-02-28T09:24:05;41.97;;;1.60;;
1747;SDS011;871;47.034;15.394;2024-02-28T09:26:31;41.57;;;1.70;;
1747;SDS011;871;47.034;15.394;2024-02-28T09:28:57;41.87;;;1.70;;
1747;SDS011;871;47.034;15.394;2024-02-28T09:31:23;43.63;;;2.77;;
1747;SDS011;871;47.034;15.394;2024-02-28T09:33:49;43.30;;;1.67;;
1747;SDS011;871;47.034;15.394;2024-02-28T09:36:15;42.20;;;2.03;;
1747;SDS011;871;47.034;15.394;2024-02-28T09:38:41;41.90;;;1.60;;
1747;SDS011;871;47.034;15.394;2024-02-28T09:41:08;42.17;;;1.87;;
1747;SDS011;871;47.034;15.394;2024-02-28T09:43:40;41.80;;;1.13;;
1747;SDS011;871;47.034;15.394;2024-02-28T09:46:07;42.60;;;1.50;;
1747;SDS011;871;47.034;15.394;2024-02-28T09:48:40;41.40;;;1.20;;
1747;SDS011;871;47.034;15.394;2024-02-28T09:51:06;41.87;;;1.30;;
1747;SDS011;871;47.034;15.394;2024-02-28T09:53:34;41.83;;;1.40;;
1747;SDS011;871;47.034;15.394;2024-02-28T09:56:02;41.67;;;1.50;;
1747;SDS011;871;47.034;15.394;2024-02-28T09:58:28;41.53;;;1.20;;
1747;SDS011;871;47.034;15.394;2024-02-28T10:00:56;41.73;;;1.20;;
1747;SDS011;871;47.034;15.394;2024-02-28T10:03:24;41.57;;;1.27;;
1747;SDS011;871;47.034;15.394;2024-02-28T10:05:51;42.10;;;1.50;;
1747;SDS011;871;47.034;15.394;2024-02-28T10:08:17;41.80;;;2.03;;
1747;SDS011;871;47.034;15.394;2024-02-28T10:10:49;41.90;;;1.60;;
1747;SDS011;871;47.034;15.394;2024-02-28T10:13:19;42.03;;;1.40;;
1747;SDS011;871;47.034;15.394;2024-02-28T10:15:45;47.23;;;2.60;;
1747;SDS011;871;47.034;15.394;2024-02-28T10:18:11;42.23;;;1.80;;
1747;SDS011;871;47.034;15.394;2024-02-28T10:20:37;41.90;;;1.47;;
1747;SDS011;871;47.034;15.394;2024-02-28T10:23:04;41.80;;;1.43;;
1747;SDS011;871;47.034;15.394;2024-02-28T10:25:30;41.50;;;1.73;;
1747;SDS011;871;47.034;15.394;2024-02-28T10:28:00;42.33;;;1.27;;
1747;SDS011;871;47.034;15.394;2024-02-28T10:30:26;42.07;;;1.20;;
1747;SDS011;871;47.034;15.394;2024-02-28T10:32:52;41.60;;;1.20;;
1747;SDS011;871;47.034;15.394;2024-02-28T10:35:19;42.07;;;1.33;;
1747;SDS011;871;47.034;15.394;2024-02-28T10:37:46;42.07;;;1.40;;
1747;SDS011;871;47.034;15.394;2024-02-28T10:40:13;41.70;;;1.10;;
1747;SDS011;871;47.034;15.394;2024-02-28T10:42:42;42.07;;;1.33;;
1747;SDS011;871;47.034;15.394;2024-02-28T10:45:12;42.97;;;1.73;;
1747;SDS011;871;47.034;15.394;2024-02-28T10:47:38;41.90;;;1.47;;
1747;SDS011;871;47.034;15.394;2024-02-28T10:50:04;43.20;;;2.03;;
1747;SDS011;871;47.034;15.394;2024-02-28T10:52:35;42.03;;;1.90;;
1747;SDS011;871;47.034;15.394;2024-02-28T10:55:05;42.03;;;1.40;;
1747;SDS011;871;47.034;15.394;2024-02-28T10:57:34;41.70;;;1.27;;
1747;SDS011;871;47.034;15.394;2024-02-28T11:00:02;44.70;;;2.27;;
1747;SDS011;871;47.034;15.394;2024-02-28T11:02:30;42.97;;;2.03;;
1747;SDS011;871;47.034;15.394;2024-02-28T11:04:57;42.70;;;2.00;;
1747;SDS011;871;47.034;15.394;2024-02-28T11:07:26;42.90;;;2.53;;
1747;SDS011;871;47.034;15.394;2024-02-28T11:09:55;41.47;;;1.47;;
1747;SDS011;871;47.034;15.394;2024-02-28T11:12:28;46.30;;;3.23;;
1747;SDS011;871;47.034;15.394;2024-02-28T11:14:57;41.77;;;1.40;;
1747;SDS011;871;47.034;15.394;2024-02-28T11:17:27;42.17;;;1.97;;
1747;SDS011;871;47.034;15.394;2024-02-28T11:19:53;41.70;;;1.57;;
1747;SDS011;871;47.034;15.394;2024-02-28T11:22:19;41.50;;;1.30;;
1747;SDS011;871;47.034;15.394;2024-02-28T11:24:46;41.87;;;1.50;;
1747;SDS011;871;47.034;15.394;2024-02-28T11:27:16;41.57;;;1.33;;
1747;SDS011;871;47.034;15.394;2024-02-28T11:29:42;41.77;;;1.47;;
1747;SDS011;871;47.034;15.394;2024-02-28T11:32:10;41.73;;;1.40;;
1747;SDS011;871;47.034;15.394;2024-02-28T11:34:37;41.77;;;1.30;;
1747;SDS011;871;47.034;15.394;2024-02-28T11:37:05;41.40;;;1.00;;
1747;SDS011;871;47.034;15.394;2024-02-28T11:39:32;41.97;;;1.50;;
1747;SDS011;871;47.034;15.394;2024-02-28T11:42:08;41.77;;;1.33;;
1747;SDS011;871;47.034;15.394;2024-02-28T11:44:34;41.60;;;1.40;;
1747;SDS011;871;47.034;15.394;2024-02-28T11:47:00;41.67;;;1.10;;
1747;SDS011;871;47.034;15.394;2024-02-28T11:49:27;42.20;;;1.63;;
1747;SDS011;871;47.034;15.394;2024-02-28T11:51:53;41.47;;;1.00;;
1747;SDS011;871;47.034;15.394;2024-02-28T11:54:19;41.47;;;1.10;;
1747;SDS011;871;47.034;15.394;2024-02-28T11:56:45;41.90;;;1.33;;
1747;SDS011;871;47.034;15.394;2024-02-28T11:59:11;41.67;;;1.20;;
1747;SDS011;871;47.034;15.394;2024-02-28T12:01:40;42.27;;;2.17;;
1747;SDS011;871;47.034;15.394;2024-02-28T12:04:07;41.60;;;1.17;;
1747;SDS011;871;47.034;15.394;2024-02-28T12:06:36;42.40;;;1.33;;
1747;SDS011;871;47.034;15.394;2024-02-28T12:09:06;41.83;;;1.10;;
1747;SDS011;871;47.034;15.394;2024-02-28T12:11:36;42.07;;;1.83;;
1747;SDS011;871;47.034;15.394;2024-02-28T12:14:06;41.67;;;1.50;;
1747;SDS011;871;47.034;15.394;2024-02-28T12:16:34;41.57;;;1.20;;
1747;SDS011;871;47.034;15.394;2024-02-28T12:19:20;42.23;;;1.37;;
1747;SDS011;871;47.034;15.394;2024-02-28T12:21:46;41.67;;;1.20;;
1747;SDS011;871;47.034;15.394;2024-02-28T12:24:12;41.40;;;1.00;;
1747;SDS011;871;47.034;15.394;2024-02-28T12:26:38;41.67;;;1.20;;
1747;SDS011;871;47.034;15.394;2024-02-28T12:29:05;43.83;;;1.60;;
1747;SDS011;871;47.034;15.394;2024-02-28T12:31:31;42.37;;;1.57;;
1747;SDS011;871;47.034;15.394;2024-02-28T12:33:57;41.47;;;1.40;;
1747;SDS011;871;47.034;15.394;2024-02-28T12:36:23;41.67;;;1.23;;
1747;SDS011;871;47.034;15.394;2024-02-28T12:38:49;41.70;;;1.13;;
1747;SDS011;871;47.034;15.394;2024-02-28T12:41:16;41.70;;;1.30;;
1747;SDS011;871;47.034;15.394;2024-02-28T12:43:42;42.07;;;1.40;;
1747;SDS011;871;47.034;15.394;2024-02-28T12:46:08;41.90;;;1.47;;
1747;SDS011;871;47.034;15.394;2024-02-28T12:48:38;42.07;;;1.60;;
1747;SDS011;871;47.034;15.394;2024-02-28T12:51:04;42.00;;;1.20;;
1747;SDS011;871;47.034;15.394;2024-02-28T12:53:31;42.37;;;1.63;;
1747;SDS011;871;47.034;15.394;2024-02-28T12:55:57;42.53;;;1.30;;
1747;SDS011;871;47.034;15.394;2024-02-28T12:58:23;43.60;;;2.10;;
1747;SDS011;871;47.034;15.394;2024-02-28T13:00:49;41.87;;;1.30;;
1747;SDS011;871;47.034;15.394;2024-02-28T13:03:15;42.37;;;1.50;;
1747;SDS011;871;47.034;15.394;2024-02-28T13:05:42;42.20;;;1.50;;
1747;SDS011;871;47.034;15.394;2024-02-28T13:08:08;42.10;;;1.30;;
1747;SDS011;871;47.034;15.394;2024-02-28T13:10:34;42.30;;;1.47;;
1747;SDS011;871;47.034;15.394;2024-02-28T13:13:04;42.17;;;1.30;;
1747;SDS011;871;47.034;15.394;2024-02-28T13:15:31;42.07;;;1.23;;
1747;SDS011;871;47.034;15.394;2024-02-28T13:17:57;42.17;;;1.50;;
1747;SDS011;871;47.034;15.394;2024-02-28T13:20:23;41.80;;;1.37;;
1747;SDS011;871;47.034;15.394;2024-02-28T13:22:50;44.37;;;1.80;;
1747;SDS011;871;47.034;15.394;2024-02-28T13:25:16;42.53;;;1.90;;
1747;SDS011;871;47.034;15.394;2024-02-28T13:27:44;42.33;;;1.50;;
1747;SDS011;871;47.034;15.394;2024-02-28T13:30:11;42.33;;;1.57;;
1747;SDS011;871;47.034;15.394;2024-02-28T13:32:37;42.10;;;1.37;;
1747;SDS011;871;47.034;15.394;2024-02-28T13:35:03;42.33;;;1.37;;
1747;SDS011;871;47.034;15.394;2024-02-28T13:37:29;42.27;;;1.47;;
1747;SDS011;871;47.034;15.394;2024-02-28T13:39:57;41.50;;;1.10;;
1747;SDS011;871;47.034;15.394;2024-02-28T13:42:23;41.93;;;1.70;;
1747;SDS011;871;47.034;15.394;2024-02-28T13:44:49;42.43;;;1.80;;
1747;SDS011;871;47.034;15.394;2024-02-28T13:47:16;42.17;;;1.40;;
1747;SDS011;871;47.034;15.394;2024-02-28T13:49:42;42.17;;;1.40;;
1747;SDS011;871;47.034;15.394;2024-02-28T13:52:08;42.30;;;1.50;;
1747;SDS011;871;47.034;15.394;2024-02-28T13:54:34;41.70;;;1.10;;
1747;SDS011;871;47.034;15.394;2024-02-28T13:57:00;41.70;;;1.23;;
1747;SDS011;871;47.034;15.394;2024-02-28T13:59:30;41.77;;;1.33;;
1747;SDS011;871;47.034;15.394;2024-02-28T14:01:56;41.90;;;1.20;;
1747;SDS011;871;47.034;15.394;2024-02-28T14:04:23;42.23;;;1.77;;
1747;SDS011;871;47.034;15.394;2024-02-28T14:06:49;41.97;;;1.30;;
1747;SDS011;871;47.034;15.394;2024-02-28T14:09:15;42.03;;;1.40;;
1747;SDS011;871;47.034;15.394;2024-02-28T14:11:41;41.83;;;1.27;;
1747;SDS011;871;47.034;15.394;2024-02-28T14:14:08;42.03;;;1.60;;
1747;SDS011;871;47.034;15.394;2024-02-28T14:16:34;42.23;;;1.77;;
1747;SDS011;871;47.034;15.394;2024-02-28T14:19:00;42.13;;;1.70;;
1747;SDS011;871;47.034;15.394;2024-02-28T14:21:26;41.70;;;1.23;;
1747;SDS011;871;47.034;15.394;2024-02-28T14:23:52;42.70;;;1.63;;
1747;SDS011;871;47.034;15.394;2024-02-28T14:26:19;41.87;;;1.20;;
1747;SDS011;871;47.034;15.394;2024-02-28T14:28:45;41.90;;;1.37;;
1747;SDS011;871;47.034;15.394;2024-02-28T14:31:11;41.77;;;1.20;;
1747;SDS011;871;47.034;15.394;2024-02-28T14:33:37;41.83;;;1.57;;
1747;SDS011;871;47.034;15.394;2024-02-28T14:36:03;41.83;;;1.43;;
1747;SDS011;871;47.034;15.394;2024-02-28T14:38:30;42.70;;;1.67;;
1747;SDS011;871;47.034;15.394;2024-02-28T14:40:56;41.67;;;1.80;;
1747;SDS011;871;47.034;15.394;2024-02-28T14:43:23;41.70;;;1.50;;
1747;SDS011;871;47.034;15.394;2024-02-28T14:45:49;41.67;;;1.50;;
1747;SDS011;871;47.034;15.394;2024-02-28T14:48:15;41.77;;;1.23;;
1747;SDS011;871;47.034;15.394;2024-02-28T14:50:41;41.73;;;1.20;;
1747;SDS011;871;47.034;15.394;2024-02-28T14:53:08;40.90;;;1.23;;
1747;SDS011;871;47.034;15.394;2024-02-28T14:55:34;42.17;;;1.90;;